Carter Lake, IA

12:18 AM CDT en Abril 28, 2015 (GMT -0500)
Millard Municipal | | Change Station
CLOSE
Current Station
Aeropuerto
Location: Omaha Millard,
Altura: 1050 ft
Estaciones meteorológicas cercanas

Alt 1050 ft 41.20 °N, 96.11 °W | Updated 23 minutes ago

Muy nublado
Muy nublado
50 ° F
Sensación térmica 50 ° F
N
0
Viento Variable Viento desde Norte

Hoy
Alta -- | Baja -- ° F
--% Posibilidad de precipitaciones
Ayer
Alta -- | Baja -- ° F
Precip. -- pul
6:25 AM 8:17 PM
Gibosa creciente, 71% visible
Presión 30.18 pul
Visibilidad 10.0 Millas
Nubes Despejado
Punto de rocío 38 ° F
Humedad 61%
Precipitaciones 0.00 pul
Espesor de la nieve No disponible.
UV 0 de una escala de 12
Polen 10.20 de una escala de 12
Calidad del aire No disponible.
Flu Activity Local Activity
METAR KMLE 280455Z AUTO 00000KT 10SM CLR 10/03 A3018 RMK AO2 T01030031

More Conditions Fewer Conditions

Presión 30.18 pul
Visibilidad 10.0 Millas
Nubes Despejado
Punto de rocío 38 ° F
Humedad 61%
Precipitaciones 0.00 pul
Espesor de la nieve No disponible.
UV 0 de una escala de 12
Polen 10.20 de una escala de 12
Calidad del aire No disponible.
Flu Activity Local Activity
METAR KMLE 280455Z AUTO 00000KT 10SM CLR 10/03 A3018 RMK AO2 T01030031

More Conditions Fewer Conditions

10-Day Weather Forecast

Almanac

Astronomía

Apr. 28, 2015 Salida Puesta
Hora real
Crepúsculo civil
Crepúsculo náutico
Crepúsculo astronómico
Luna
Horas de luz
Horas de luz
Tomorrow will be .
, % of the Moon is Illuminated

Extremos de hoy

Máximos del estado Bajos del estado

Community

WunderPhotos

Upload Photos

1,817,584 ¡fotos cargadas!

WunderBlogs® & News

Nearby

Calidad del aire

  Calidad del aire Índice AQ Contaminante
Not available.

Grosos de nieve

Estación Profundido Altura

Actividad de terremotos

Ciudad Distance Mag. Tiempo y dato
Magnitud mínima muestra es 2,5.

Temperaturas de aguas costeras

Lugar Temperatura

Stations

Estaciones meteorológicas cercanas

Ubicación de la estación Temp. Vientos helados Punto de rocío Humedad Viento Precip. Alt Actualizado Tipo